createdAt,value
2017-12-14T00:00:36.269Z,1.3
2017-12-14T00:01:38.168Z,1.3
2017-12-14T00:02:40.141Z,1.8
2017-12-14T00:03:42.108Z,1.8
2017-12-14T00:04:44.239Z,1.8
2017-12-14T00:05:46.244Z,1.6
2017-12-14T00:06:48.165Z,1.8
2017-12-14T00:07:50.132Z,1.9
2017-12-14T00:08:52.101Z,1.9
2017-12-14T00:09:54.019Z,1.9
2017-12-14T00:10:55.977Z,1.8
2017-12-14T00:11:57.925Z,2.0
2017-12-14T00:12:59.825Z,2.3
2017-12-14T00:14:01.793Z,2.2
2017-12-14T00:15:03.863Z,2.5
2017-12-14T00:16:05.846Z,1.9
2017-12-14T00:17:07.771Z,2.0
2017-12-14T00:18:09.712Z,2.0
2017-12-14T00:19:11.572Z,1.9
2017-12-14T00:20:13.541Z,1.9
2017-12-14T00:21:15.381Z,2.3
2017-12-14T00:22:17.312Z,1.6
2017-12-14T00:23:19.207Z,1.8
2017-12-14T00:24:21.078Z,1.9
2017-12-14T00:25:23.008Z,1.9
2017-12-14T00:26:24.932Z,1.9
2017-12-14T00:27:26.905Z,1.9
2017-12-14T00:28:28.919Z,1.9
2017-12-14T00:29:30.826Z,2.0
2017-12-14T00:30:32.701Z,1.9
2017-12-14T00:31:34.526Z,2.5
2017-12-14T00:32:36.286Z,2.9
2017-12-14T00:33:38.094Z,2.3
2017-12-14T00:34:39.929Z,2.1
2017-12-14T00:35:41.816Z,2.1
2017-12-14T00:36:43.720Z,2.2
2017-12-14T00:37:45.651Z,2.4
2017-12-14T00:38:47.540Z,2.6
2017-12-14T00:39:49.401Z,2.4
2017-12-14T00:40:51.268Z,2.5
2017-12-14T00:41:53.284Z,2.4
2017-12-14T00:42:55.177Z,2.4
2017-12-14T00:43:57.130Z,2.5
2017-12-14T00:44:59.029Z,2.3
2017-12-14T00:46:01.086Z,2.4
2017-12-14T00:47:03.014Z,2.9
2017-12-14T00:48:04.992Z,2.7
2017-12-14T00:49:07.003Z,2.9
2017-12-14T00:50:08.896Z,2.8
2017-12-14T00:51:10.964Z,2.7
2017-12-14T00:52:12.888Z,2.6
2017-12-14T00:53:14.813Z,2.4
2017-12-14T00:54:16.802Z,2.4
2017-12-14T00:55:18.817Z,2.1
2017-12-14T00:56:20.904Z,2.5
2017-12-14T00:57:23.212Z,2.6
2017-12-14T00:58:25.309Z,2.8
2017-12-14T00:59:27.466Z,2.8
2017-12-14T01:00:29.531Z,3.0
2017-12-14T01:01:31.870Z,2.5
2017-12-14T01:02:34.296Z,2.8
2017-12-14T01:03:36.642Z,2.9
2017-12-14T01:04:38.866Z,3.2
2017-12-14T01:05:41.029Z,3.2
2017-12-14T01:06:43.446Z,3.0
2017-12-14T01:07:45.857Z,3.1
2017-12-14T01:08:48.090Z,3.1
2017-12-14T01:09:50.300Z,2.7
2017-12-14T01:10:52.491Z,3.6
2017-12-14T01:11:54.866Z,2.9
2017-12-14T01:12:57.147Z,3.5
2017-12-14T01:13:59.570Z,3.8
2017-12-14T01:15:01.949Z,3.3
2017-12-14T01:16:04.333Z,3.7
2017-12-14T01:17:06.689Z,3.8
2017-12-14T01:18:09.223Z,3.9
2017-12-14T01:19:11.670Z,4.0
2017-12-14T01:20:14.142Z,3.8
2017-12-14T01:21:16.835Z,3.8
2017-12-14T01:22:19.157Z,3.4
2017-12-14T01:23:21.587Z,3.7
2017-12-14T01:24:24.489Z,3.5
2017-12-14T01:25:26.693Z,3.2
2017-12-14T01:26:28.871Z,3.5
2017-12-14T01:27:31.387Z,3.6
2017-12-14T01:28:33.603Z,3.3
2017-12-14T01:29:35.611Z,3.7
2017-12-14T01:30:37.702Z,3.1
2017-12-14T01:31:39.899Z,3.5
2017-12-14T01:32:42.140Z,4.2
2017-12-14T01:33:44.167Z,3.4
2017-12-14T01:34:46.377Z,4.1
2017-12-14T01:35:48.424Z,3.8
2017-12-14T01:36:50.462Z,3.9
2017-12-14T01:37:52.490Z,4.0
2017-12-14T01:38:54.515Z,3.8
2017-12-14T01:39:56.671Z,3.5
2017-12-14T01:40:58.748Z,3.8
2017-12-14T01:42:00.914Z,3.3
2017-12-14T01:43:02.985Z,3.3
2017-12-14T01:44:05.118Z,3.6
2017-12-14T01:45:07.148Z,3.5
2017-12-14T01:46:09.240Z,3.0
2017-12-14T01:47:11.303Z,3.4
2017-12-14T01:48:13.361Z,3.5
2017-12-14T01:49:15.607Z,3.5
2017-12-14T01:50:17.579Z,3.6
2017-12-14T01:51:19.527Z,3.7
2017-12-14T01:52:21.488Z,3.3
2017-12-14T01:53:23.502Z,3.8
2017-12-14T01:54:25.466Z,3.5
2017-12-14T01:55:27.499Z,3.9
2017-12-14T01:56:29.432Z,3.1
2017-12-14T01:57:31.404Z,3.8
2017-12-14T01:58:33.482Z,3.9
2017-12-14T01:59:35.398Z,3.7
2017-12-14T02:00:37.426Z,3.4
2017-12-14T02:01:39.400Z,4.0
2017-12-14T02:02:42.223Z,3.5
2017-12-14T02:03:44.205Z,3.7
2017-12-14T02:04:46.155Z,3.7
2017-12-14T02:05:48.156Z,3.9
2017-12-14T02:06:50.100Z,3.6
2017-12-14T02:07:52.062Z,4.2
2017-12-14T02:08:54.035Z,4.1
2017-12-14T02:09:56.009Z,3.9
2017-12-14T02:10:57.971Z,3.5
2017-12-14T02:12:00.002Z,3.7
2017-12-14T02:13:02.014Z,3.4
2017-12-14T02:14:03.912Z,3.6
2017-12-14T02:15:05.829Z,3.7
2017-12-14T02:16:07.768Z,3.6
2017-12-14T02:17:09.735Z,3.7
2017-12-14T02:18:11.742Z,3.7
2017-12-14T02:19:13.694Z,3.4
2017-12-14T02:20:15.649Z,3.6
2017-12-14T02:21:17.533Z,3.9
2017-12-14T02:22:19.479Z,3.6
2017-12-14T02:23:21.348Z,3.9
2017-12-14T02:24:23.278Z,4.1
2017-12-14T02:25:25.214Z,3.8
2017-12-14T02:26:27.113Z,4.1
2017-12-14T02:27:29.021Z,3.9
2017-12-14T02:28:30.952Z,3.9
2017-12-14T02:29:32.868Z,4.3
2017-12-14T02:30:34.746Z,4.5
2017-12-14T02:31:36.599Z,4.3
2017-12-14T02:32:38.477Z,4.7
2017-12-14T02:33:40.366Z,4.8
2017-12-14T02:34:42.278Z,5.0
2017-12-14T02:35:44.165Z,4.7
2017-12-14T02:36:46.015Z,4.7
2017-12-14T02:37:47.943Z,5.5
2017-12-14T02:38:49.801Z,4.9
2017-12-14T02:39:51.680Z,5.2
2017-12-14T02:40:53.536Z,5.4
2017-12-14T02:41:55.375Z,5.2
2017-12-14T02:42:57.189Z,4.9
2017-12-14T02:43:58.995Z,5.1
2017-12-14T02:45:00.794Z,5.8
2017-12-14T02:46:02.636Z,5.1
2017-12-14T02:47:04.428Z,6.2
2017-12-14T02:48:06.198Z,6.8
2017-12-14T02:49:08.018Z,6.0
2017-12-14T02:50:09.815Z,6.0
2017-12-14T02:51:11.583Z,6.2
2017-12-14T02:52:13.399Z,6.3
2017-12-14T02:53:15.208Z,6.4
2017-12-14T02:54:16.999Z,7.1
2017-12-14T02:55:18.796Z,6.7
2017-12-14T03:01:10.915Z,5.1
2017-12-14T03:02:12.561Z,6.4
2017-12-14T03:03:14.197Z,7.0
2017-12-14T03:04:15.857Z,7.0
2017-12-14T03:05:17.500Z,6.9
2017-12-14T03:06:19.142Z,7.0
2017-12-14T03:07:20.794Z,6.7
2017-12-14T03:08:22.434Z,7.2
2017-12-14T03:09:24.085Z,7.1
2017-12-14T03:10:25.721Z,7.2
2017-12-14T03:11:27.365Z,6.4
2017-12-14T03:12:29.008Z,7.0
2017-12-14T03:13:30.652Z,7.2
2017-12-14T03:14:32.305Z,6.8
2017-12-14T03:15:33.948Z,6.1
2017-12-14T03:16:35.590Z,6.5
2017-12-14T03:17:37.234Z,6.2
2017-12-14T03:18:38.880Z,5.2
2017-12-14T03:19:40.529Z,5.1
2017-12-14T03:20:42.177Z,4.7
2017-12-14T03:21:43.829Z,5.0
2017-12-14T03:22:45.465Z,5.6
2017-12-14T03:23:47.104Z,5.1
2017-12-14T03:24:48.780Z,5.1
2017-12-14T03:25:50.413Z,6.0
2017-12-14T03:26:52.056Z,4.7
2017-12-14T03:27:53.705Z,5.4
2017-12-14T03:28:55.371Z,5.5
2017-12-14T03:29:57.022Z,5.6
2017-12-14T03:30:58.678Z,5.4
2017-12-14T03:32:00.315Z,4.9
2017-12-14T03:33:01.963Z,4.3
2017-12-14T03:34:03.627Z,4.5
2017-12-14T03:35:05.280Z,4.4
2017-12-14T03:36:06.934Z,5.1
2017-12-14T03:37:08.586Z,5.4
2017-12-14T03:38:10.232Z,4.8
2017-12-14T03:39:11.883Z,4.7
2017-12-14T03:40:13.523Z,4.5
2017-12-14T03:41:15.175Z,5.3
2017-12-14T03:42:16.821Z,5.1
2017-12-14T03:43:18.480Z,4.7
2017-12-14T03:44:20.131Z,4.8
2017-12-14T03:45:21.773Z,4.4
2017-12-14T03:46:23.412Z,4.4
2017-12-14T03:47:25.061Z,4.4
2017-12-14T03:48:26.718Z,3.4
2017-12-14T03:49:28.365Z,2.3
2017-12-14T03:50:30.017Z,2.4
2017-12-14T03:51:31.667Z,2.0
2017-12-14T03:52:33.304Z,2.1
2017-12-14T03:53:34.949Z,1.9
2017-12-14T03:54:36.595Z,1.8
2017-12-14T03:55:38.246Z,1.7
2017-12-14T03:56:39.893Z,2.4
2017-12-14T03:57:41.543Z,2.0
2017-12-14T03:58:43.198Z,2.5
2017-12-14T03:59:44.835Z,2.8
2017-12-14T04:00:46.482Z,3.1
2017-12-14T04:01:48.119Z,3.3
2017-12-14T04:02:49.779Z,3.4
2017-12-14T04:03:51.451Z,3.6
2017-12-14T04:04:53.107Z,3.7
2017-12-14T04:05:54.858Z,3.5
2017-12-14T04:06:56.730Z,3.4
2017-12-14T04:07:58.671Z,3.2
2017-12-14T04:09:00.603Z,2.9
2017-12-14T04:10:02.655Z,3.8
2017-12-14T04:11:04.643Z,3.4
2017-12-14T04:12:06.533Z,2.9
2017-12-14T04:13:08.415Z,3.7
2017-12-14T04:14:10.469Z,2.9
2017-12-14T04:15:12.304Z,3.2
2017-12-14T04:16:14.361Z,3.0
2017-12-14T04:17:16.220Z,3.0
2017-12-14T04:18:18.122Z,2.8
2017-12-14T04:19:19.972Z,3.0
2017-12-14T04:20:21.933Z,3.2
2017-12-14T04:21:23.870Z,3.0
2017-12-14T04:22:25.769Z,3.0
2017-12-14T04:23:27.709Z,2.7
2017-12-14T04:24:29.655Z,1.7
2017-12-14T04:25:31.593Z,1.9
2017-12-14T04:26:33.497Z,1.5
2017-12-14T04:27:35.445Z,1.6
2017-12-14T04:28:37.420Z,1.4
2017-12-14T04:29:39.321Z,1.3
2017-12-14T04:30:41.262Z,1.2
2017-12-14T04:31:43.504Z,1.2
2017-12-14T04:32:45.409Z,1.0
2017-12-14T04:33:47.364Z,1.3
2017-12-14T04:34:49.326Z,1.3
2017-12-14T04:35:51.193Z,1.5
2017-12-14T04:36:53.088Z,1.1
2017-12-14T04:37:54.999Z,0.8
2017-12-14T04:38:56.928Z,1.1
2017-12-14T04:39:58.821Z,1.2
2017-12-14T04:41:00.706Z,0.9
2017-12-14T04:42:02.651Z,1.1
2017-12-14T04:43:04.601Z,0.7
2017-12-14T04:44:06.533Z,0.9
2017-12-14T04:45:08.413Z,1.0
2017-12-14T04:46:10.341Z,0.8
2017-12-14T04:47:12.259Z,0.9
2017-12-14T04:48:14.131Z,1.0
2017-12-14T04:49:16.035Z,1.1
2017-12-14T04:50:17.995Z,1.1
2017-12-14T04:51:20.007Z,1.0
2017-12-14T04:52:21.900Z,1.3
2017-12-14T04:53:23.748Z,1.2
2017-12-14T04:54:25.424Z,1.4
2017-12-14T04:55:27.148Z,1.4
2017-12-14T04:56:28.845Z,1.7
2017-12-14T04:57:30.532Z,1.2
2017-12-14T04:58:32.214Z,1.2
2017-12-14T04:59:33.910Z,1.3
2017-12-14T05:00:35.634Z,1.2
2017-12-14T05:01:37.309Z,1.3
2017-12-14T05:02:39.018Z,1.4
2017-12-14T05:03:40.692Z,1.3
2017-12-14T05:04:42.414Z,1.4
2017-12-14T05:05:44.121Z,1.4
2017-12-14T05:06:45.768Z,1.4
2017-12-14T05:07:47.417Z,1.4
2017-12-14T05:08:49.061Z,1.4
2017-12-14T05:09:50.705Z,1.6
2017-12-14T05:10:52.353Z,1.4
2017-12-14T05:11:54.002Z,1.2
2017-12-14T05:12:55.650Z,1.3
2017-12-14T05:13:57.296Z,1.7
2017-12-14T05:14:58.937Z,1.1
2017-12-14T05:16:00.576Z,1.2
2017-12-14T05:17:02.232Z,1.3
2017-12-14T05:18:03.883Z,1.2
2017-12-14T05:19:06.975Z,1.2
2017-12-14T05:20:08.617Z,1.1
2017-12-14T05:21:10.262Z,1.1
2017-12-14T05:22:11.893Z,1.2
2017-12-14T05:23:13.534Z,1.0
2017-12-14T05:24:15.190Z,1.2
2017-12-14T05:25:16.834Z,1.1
2017-12-14T05:26:18.472Z,1.0
2017-12-14T05:27:20.114Z,1.2
2017-12-14T05:28:21.816Z,1.1
2017-12-14T05:29:23.429Z,1.5
2017-12-14T05:30:25.068Z,1.2
2017-12-14T05:31:26.720Z,1.2
2017-12-14T05:32:28.375Z,1.0
2017-12-14T05:33:30.020Z,1.2
2017-12-14T05:34:31.664Z,1.0
2017-12-14T05:35:33.305Z,1.0
2017-12-14T05:36:34.959Z,1.2
2017-12-14T05:37:36.603Z,0.9
2017-12-14T05:38:38.250Z,0.8
2017-12-14T05:39:39.902Z,1.1
2017-12-14T05:40:41.539Z,1.1
2017-12-14T05:41:43.185Z,0.8
2017-12-14T05:42:44.850Z,1.3
2017-12-14T05:43:46.490Z,1.0
2017-12-14T05:44:48.142Z,0.9
2017-12-14T05:45:49.781Z,1.3
2017-12-14T05:46:51.434Z,2.0
2017-12-14T05:47:53.068Z,1.4
2017-12-14T05:48:54.712Z,2.2
2017-12-14T05:49:56.361Z,2.1
2017-12-14T05:50:58.002Z,1.5
2017-12-14T05:51:59.644Z,2.1
2017-12-14T05:53:01.300Z,1.6
2017-12-14T05:54:02.940Z,1.7
2017-12-14T05:55:04.616Z,1.7
2017-12-14T05:56:06.252Z,1.8
2017-12-14T05:57:07.900Z,1.9
2017-12-14T05:58:09.546Z,1.8
2017-12-14T05:59:11.186Z,2.1
2017-12-14T06:00:12.837Z,4.9
2017-12-14T06:01:14.483Z,2.7
2017-12-14T06:02:16.161Z,1.1
2017-12-14T06:03:17.814Z,1.0
2017-12-14T06:04:19.458Z,1.7
2017-12-14T06:05:21.101Z,1.3
2017-12-14T06:06:22.814Z,1.3
2017-12-14T06:07:24.466Z,1.6
2017-12-14T06:08:26.122Z,1.7
2017-12-14T06:09:27.773Z,3.4
2017-12-14T06:10:29.849Z,0.9
2017-12-14T06:11:31.412Z,1.6
2017-12-14T06:12:33.061Z,1.4
2017-12-14T06:13:34.720Z,2.5
2017-12-14T06:14:36.378Z,1.2
2017-12-14T06:15:38.021Z,1.6
2017-12-14T06:16:39.665Z,3.0
2017-12-14T06:17:41.305Z,1.6
2017-12-14T06:18:42.949Z,4.3
2017-12-14T06:19:44.597Z,1.7
2017-12-14T06:20:46.254Z,1.6
2017-12-14T06:21:47.910Z,1.3
2017-12-14T06:22:49.566Z,1.6
2017-12-14T06:23:51.226Z,1.9
2017-12-14T06:24:52.869Z,0.9
2017-12-14T06:25:54.516Z,1.5
2017-12-14T06:26:56.150Z,2.9
2017-12-14T06:27:57.799Z,2.6
2017-12-14T06:28:59.448Z,1.0
2017-12-14T06:30:01.092Z,0.8
2017-12-14T06:31:02.741Z,1.0
2017-12-14T06:32:04.389Z,1.2
2017-12-14T06:33:06.032Z,0.9
2017-12-14T06:34:07.687Z,1.0
2017-12-14T06:35:09.330Z,1.1
2017-12-14T06:36:10.979Z,1.3
2017-12-14T06:37:12.631Z,2.6
2017-12-14T06:38:14.278Z,1.1
2017-12-14T06:39:16.067Z,1.6
2017-12-14T06:40:17.779Z,1.4
2017-12-14T06:41:19.489Z,2.0
2017-12-14T06:42:21.208Z,3.4
2017-12-14T06:43:22.875Z,1.8
2017-12-14T06:44:24.708Z,1.4
2017-12-14T06:45:26.727Z,2.5
2017-12-14T06:46:28.634Z,3.8
2017-12-14T06:47:30.588Z,1.1
2017-12-14T06:48:32.793Z,2.1
2017-12-14T06:49:35.289Z,1.5
2017-12-14T06:50:37.816Z,3.6
2017-12-14T06:51:40.431Z,1.4
2017-12-14T06:52:42.947Z,1.8
2017-12-14T06:53:45.773Z,3.3
2017-12-14T06:54:48.072Z,7.9
2017-12-14T06:55:50.788Z,1.9
2017-12-14T07:02:08.802Z,0.7
2017-12-14T07:03:11.414Z,1.5
2017-12-14T07:04:14.002Z,1.6
2017-12-14T07:05:16.708Z,1.1
2017-12-14T07:06:19.387Z,2.2
2017-12-14T07:07:21.904Z,1.1
2017-12-14T07:08:24.544Z,1.4
2017-12-14T07:09:28.045Z,2.3
2017-12-14T07:10:30.724Z,1.6
2017-12-14T07:11:33.418Z,1.2
2017-12-14T07:12:35.939Z,1.9
2017-12-14T07:13:38.733Z,1.9
2017-12-14T07:14:41.508Z,1.3
2017-12-14T07:15:44.307Z,0.9
2017-12-14T07:16:47.276Z,1.0
2017-12-14T07:17:50.218Z,1.3
2017-12-14T07:18:53.332Z,1.3
2017-12-14T07:19:56.751Z,1.0
2017-12-14T07:20:58.930Z,1.1
2017-12-14T07:22:01.185Z,1.1
2017-12-14T07:23:03.361Z,1.7
2017-12-14T07:24:05.304Z,1.1
2017-12-14T07:25:07.546Z,1.4
2017-12-14T07:26:09.618Z,1.7
2017-12-14T07:27:11.722Z,2.1
2017-12-14T07:28:13.757Z,2.9
2017-12-14T07:29:15.723Z,3.8
2017-12-14T07:30:17.816Z,2.9
2017-12-14T07:31:19.934Z,3.8
2017-12-14T07:32:22.276Z,3.7
2017-12-14T07:33:24.287Z,3.8
2017-12-14T07:34:26.268Z,4.8
2017-12-14T07:35:28.665Z,5.6
2017-12-14T07:36:30.895Z,4.8
2017-12-14T07:37:32.954Z,6.1
2017-12-14T07:38:35.045Z,5.0
2017-12-14T07:39:37.217Z,4.5
2017-12-14T07:40:39.332Z,5.3
2017-12-14T07:41:41.479Z,5.2
2017-12-14T07:42:43.580Z,5.0
2017-12-14T07:43:45.627Z,4.7
2017-12-14T07:44:47.577Z,4.6
2017-12-14T07:45:49.623Z,4.1
2017-12-14T07:46:51.635Z,3.7
2017-12-14T07:47:53.592Z,3.8
2017-12-14T07:48:55.506Z,4.2
2017-12-14T07:49:57.337Z,3.9
2017-12-14T07:50:59.267Z,3.8
2017-12-14T07:52:01.150Z,3.8
2017-12-14T07:53:03.060Z,3.4
2017-12-14T07:54:04.944Z,3.6
2017-12-14T07:55:06.889Z,4.0
2017-12-14T07:56:08.781Z,3.6
2017-12-14T07:57:10.678Z,4.0
2017-12-14T07:58:12.652Z,4.1
2017-12-14T07:59:14.582Z,3.2
2017-12-14T08:00:16.545Z,3.8
2017-12-14T08:01:18.457Z,3.6
2017-12-14T08:02:20.371Z,3.8
2017-12-14T08:03:22.269Z,3.8
2017-12-14T08:04:24.117Z,3.7
2017-12-14T08:05:26.091Z,3.7
2017-12-14T08:06:27.942Z,3.4
2017-12-14T08:07:29.825Z,3.8
2017-12-14T08:08:31.750Z,4.0
2017-12-14T08:09:33.675Z,3.7
2017-12-14T08:10:35.591Z,3.9
2017-12-14T08:11:37.453Z,4.4
2017-12-14T08:12:39.374Z,3.9
2017-12-14T08:13:41.274Z,4.3
2017-12-14T08:14:43.227Z,3.8
2017-12-14T08:15:45.083Z,3.6
2017-12-14T08:16:46.961Z,3.3
2017-12-14T08:17:48.887Z,3.1
2017-12-14T08:18:50.790Z,2.7
2017-12-14T08:19:52.734Z,3.3
2017-12-14T08:20:54.672Z,3.7
2017-12-14T08:21:56.696Z,3.0
2017-12-14T08:22:58.714Z,3.9
2017-12-14T08:24:00.744Z,3.3
2017-12-14T08:25:02.863Z,3.8
2017-12-14T08:26:04.825Z,3.7
2017-12-14T08:27:06.751Z,3.6
2017-12-14T08:28:08.751Z,3.1
2017-12-14T08:29:10.780Z,3.3
2017-12-14T08:30:12.770Z,3.3
2017-12-14T08:31:14.705Z,3.2
2017-12-14T08:32:16.638Z,3.0
2017-12-14T08:33:18.543Z,3.9
2017-12-14T08:34:20.427Z,4.4
2017-12-14T08:35:22.350Z,5.1
2017-12-14T08:36:24.395Z,5.3
2017-12-14T08:37:26.281Z,4.4
2017-12-14T08:38:28.167Z,3.7
2017-12-14T08:39:30.082Z,4.0
2017-12-14T08:40:31.938Z,3.5
2017-12-14T08:41:33.952Z,3.7
2017-12-14T08:42:35.869Z,3.9
2017-12-14T08:43:37.776Z,3.6
2017-12-14T08:44:39.707Z,3.1
2017-12-14T08:45:41.682Z,3.7
2017-12-14T08:46:43.613Z,3.7
2017-12-14T08:47:45.517Z,3.5
2017-12-14T08:48:47.404Z,3.6
2017-12-14T08:49:49.362Z,3.7
2017-12-14T08:50:51.300Z,4.0
2017-12-14T08:51:53.183Z,3.9
2017-12-14T08:52:55.124Z,3.8
2017-12-14T08:53:57.023Z,4.3
2017-12-14T08:54:58.927Z,4.3
2017-12-14T08:56:00.864Z,3.8
2017-12-14T08:57:02.779Z,4.1
2017-12-14T08:58:04.704Z,4.3
2017-12-14T08:59:06.610Z,4.4
2017-12-14T09:00:08.455Z,3.3
2017-12-14T09:01:10.307Z,4.5
2017-12-14T09:02:12.179Z,3.9
2017-12-14T09:03:14.052Z,5.0
2017-12-14T09:04:15.911Z,3.9
2017-12-14T09:05:17.826Z,4.6
2017-12-14T09:06:19.737Z,4.3
2017-12-14T09:07:21.609Z,4.0
2017-12-14T09:08:23.454Z,4.5
2017-12-14T09:09:25.282Z,4.6
2017-12-14T09:10:27.115Z,4.4
2017-12-14T09:11:28.976Z,5.2
2017-12-14T09:12:30.901Z,4.3
2017-12-14T09:13:32.797Z,4.2
2017-12-14T09:14:34.643Z,5.0
2017-12-14T09:15:36.493Z,4.5
2017-12-14T09:16:38.346Z,4.7
2017-12-14T09:17:40.162Z,5.2
2017-12-14T09:18:41.993Z,5.0
2017-12-14T09:19:43.887Z,4.2
2017-12-14T09:20:45.713Z,4.0
2017-12-14T09:21:47.544Z,3.8
2017-12-14T09:22:49.383Z,3.2
2017-12-14T09:23:51.164Z,3.1
2017-12-14T09:24:53.040Z,3.9
2017-12-14T09:25:54.863Z,3.4
2017-12-14T09:26:56.754Z,3.5
2017-12-14T09:27:58.587Z,4.0
2017-12-14T09:29:00.386Z,3.5
2017-12-14T09:30:02.214Z,3.8
2017-12-14T09:31:04.038Z,3.4
2017-12-14T09:32:05.829Z,3.4
2017-12-14T09:33:07.667Z,3.5
2017-12-14T09:34:09.538Z,3.4
2017-12-14T09:35:11.395Z,4.0
2017-12-14T09:36:13.230Z,3.5
2017-12-14T09:37:15.055Z,3.5
2017-12-14T09:38:16.916Z,3.6
2017-12-14T09:39:18.783Z,4.3
2017-12-14T09:40:20.655Z,4.2
2017-12-14T09:41:22.578Z,3.6
2017-12-14T09:42:24.494Z,3.9
2017-12-14T09:43:26.378Z,3.8
2017-12-14T09:44:28.283Z,4.5
2017-12-14T09:45:30.212Z,3.7
2017-12-14T09:46:32.121Z,3.6
2017-12-14T09:47:33.958Z,3.6
2017-12-14T09:48:35.891Z,3.7
2017-12-14T09:49:37.744Z,4.1
2017-12-14T09:50:39.740Z,3.4
2017-12-14T09:51:41.603Z,3.8
2017-12-14T09:52:43.449Z,3.3
2017-12-14T09:53:45.246Z,3.2
2017-12-14T09:54:47.083Z,3.7
2017-12-14T09:55:48.944Z,3.6
2017-12-14T09:56:50.809Z,3.6
2017-12-14T09:57:52.646Z,3.4
2017-12-14T09:58:54.489Z,3.7
2017-12-14T09:59:56.352Z,3.4
2017-12-14T10:00:58.208Z,4.0
2017-12-14T10:02:00.018Z,3.3
2017-12-14T10:03:01.860Z,3.5
2017-12-14T10:04:03.681Z,3.2
2017-12-14T10:05:05.498Z,3.4
2017-12-14T10:06:07.342Z,4.2
2017-12-14T10:07:09.144Z,3.1
2017-12-14T10:08:11.034Z,3.9
2017-12-14T10:09:12.885Z,3.7
2017-12-14T10:10:14.796Z,3.9
2017-12-14T10:11:16.611Z,4.3
2017-12-14T10:12:18.427Z,4.0
2017-12-14T10:13:20.308Z,3.1
2017-12-14T10:14:22.179Z,3.8
2017-12-14T10:15:24.051Z,3.4
2017-12-14T10:16:25.971Z,3.3
2017-12-14T10:17:27.869Z,4.2
2017-12-14T10:18:29.733Z,3.5
2017-12-14T10:19:31.581Z,3.6
2017-12-14T10:20:33.478Z,3.5
2017-12-14T10:21:35.339Z,4.0
2017-12-14T10:22:37.260Z,4.1
2017-12-14T10:23:39.143Z,3.4
2017-12-14T10:24:41.031Z,4.4
2017-12-14T10:25:42.856Z,4.4
2017-12-14T10:26:44.771Z,4.7
2017-12-14T10:27:46.628Z,4.9
2017-12-14T10:28:48.612Z,4.5
2017-12-14T10:29:50.509Z,5.6
2017-12-14T10:30:52.402Z,7.5
2017-12-14T10:31:54.504Z,6.1
2017-12-14T10:32:56.399Z,6.3
2017-12-14T10:33:58.248Z,3.8
2017-12-14T10:35:00.120Z,4.2
2017-12-14T10:36:02.018Z,6.8
2017-12-14T10:37:03.856Z,5.3
2017-12-14T10:38:05.707Z,4.4
2017-12-14T10:39:07.549Z,4.0
2017-12-14T10:40:09.401Z,4.0
2017-12-14T10:41:11.298Z,4.0
2017-12-14T10:42:13.193Z,3.1
2017-12-14T10:43:15.053Z,4.8
2017-12-14T10:44:16.871Z,7.6
2017-12-14T10:45:18.657Z,6.0
2017-12-14T10:46:20.530Z,3.8
2017-12-14T10:47:22.391Z,3.6
2017-12-14T10:48:24.243Z,4.3
2017-12-14T10:49:26.105Z,5.4
2017-12-14T10:50:27.959Z,4.3
2017-12-14T10:51:29.833Z,4.1
2017-12-14T10:52:31.848Z,5.6
2017-12-14T10:53:33.683Z,4.4
2017-12-14T10:54:35.584Z,4.9
2017-12-14T10:55:37.447Z,4.5
2017-12-14T11:01:36.129Z,2.2
2017-12-14T11:02:38.491Z,2.2
2017-12-14T11:03:40.245Z,3.2
2017-12-14T11:04:42.105Z,3.1
2017-12-14T11:05:43.981Z,3.0
2017-12-14T11:06:45.851Z,3.3
2017-12-14T11:07:47.721Z,4.1
2017-12-14T11:08:49.578Z,3.5
2017-12-14T11:09:51.370Z,4.1
2017-12-14T11:10:53.243Z,3.7
2017-12-14T11:11:55.135Z,4.1
2017-12-14T11:12:56.956Z,4.2
2017-12-14T11:13:58.805Z,3.9
2017-12-14T11:15:00.626Z,3.1
2017-12-14T11:16:02.434Z,3.2
2017-12-14T11:17:04.255Z,2.9
2017-12-14T11:18:07.234Z,2.6
2017-12-14T11:19:09.086Z,3.1
2017-12-14T11:20:11.851Z,2.3
2017-12-14T11:21:13.702Z,3.0
2017-12-14T11:22:15.573Z,2.5
2017-12-14T11:23:17.324Z,2.9
2017-12-14T11:24:19.165Z,2.6
2017-12-14T11:25:21.023Z,3.1
2017-12-14T11:26:22.790Z,3.4
2017-12-14T11:27:24.584Z,2.7
2017-12-14T11:28:26.453Z,3.4
2017-12-14T11:29:28.304Z,6.0
2017-12-14T11:30:30.148Z,5.8
2017-12-14T11:31:31.960Z,5.5
2017-12-14T11:32:33.723Z,4.4
2017-12-14T11:33:35.529Z,3.2
2017-12-14T11:34:37.379Z,3.6
2017-12-14T11:35:39.186Z,2.8
2017-12-14T11:36:40.980Z,2.8
2017-12-14T11:37:42.814Z,2.2
2017-12-14T11:38:44.587Z,2.6
2017-12-14T11:39:46.379Z,2.0
2017-12-14T11:40:48.129Z,2.5
2017-12-14T11:41:49.926Z,3.0
2017-12-14T11:42:51.719Z,2.6
2017-12-14T11:43:53.486Z,2.2
2017-12-14T11:44:55.199Z,3.1
2017-12-14T11:45:57.021Z,3.8
2017-12-14T11:46:58.815Z,3.0
2017-12-14T11:48:00.619Z,3.1
2017-12-14T11:49:02.378Z,3.0
2017-12-14T11:50:04.159Z,3.3
2017-12-14T11:51:06.020Z,2.7
2017-12-14T11:52:07.836Z,2.8
2017-12-14T11:53:09.660Z,2.8
2017-12-14T11:54:11.540Z,3.0
2017-12-14T11:55:13.330Z,3.2
2017-12-14T11:56:15.198Z,2.8
2017-12-14T11:57:16.966Z,3.3
2017-12-14T11:58:18.830Z,5.9
2017-12-14T11:59:20.614Z,5.5
2017-12-14T12:00:22.344Z,4.6
2017-12-14T12:01:24.111Z,4.6
2017-12-14T12:02:25.787Z,2.9
2017-12-14T12:03:27.460Z,2.6
2017-12-14T12:04:29.142Z,3.6
2017-12-14T12:05:30.826Z,3.9
2017-12-14T12:06:32.494Z,5.1
2017-12-14T12:07:34.201Z,2.7
2017-12-14T12:08:35.860Z,3.0
2017-12-14T12:09:37.504Z,3.6
2017-12-14T12:10:39.167Z,4.7
2017-12-14T12:11:40.842Z,5.0
2017-12-14T12:12:42.499Z,3.5
2017-12-14T12:13:44.162Z,2.8
2017-12-14T12:14:45.814Z,3.4
2017-12-14T12:15:47.480Z,2.8
2017-12-14T12:16:49.147Z,2.3
2017-12-14T12:17:50.813Z,3.0
2017-12-14T12:18:52.456Z,4.8
2017-12-14T12:19:54.120Z,4.1
2017-12-14T12:20:55.807Z,2.7
2017-12-14T12:21:57.531Z,2.7
2017-12-14T12:22:59.213Z,3.6
2017-12-14T12:24:00.885Z,2.3
2017-12-14T12:25:03.167Z,2.6
2017-12-14T12:26:04.871Z,4.6
2017-12-14T12:27:06.537Z,3.4
2017-12-14T12:28:08.196Z,5.2
2017-12-14T12:29:09.874Z,5.2
2017-12-14T12:30:11.576Z,4.6
2017-12-14T12:31:13.271Z,2.6
2017-12-14T12:32:15.067Z,2.3
2017-12-14T12:33:16.994Z,2.0
2017-12-14T12:34:18.822Z,2.9
2017-12-14T12:35:20.631Z,3.3
2017-12-14T12:36:22.467Z,2.3
2017-12-14T12:37:24.269Z,1.5
2017-12-14T12:38:26.004Z,1.2
2017-12-14T12:39:27.861Z,1.3
2017-12-14T12:40:29.759Z,1.7
2017-12-14T12:41:31.631Z,1.9
2017-12-14T12:42:34.178Z,1.6
2017-12-14T12:43:36.608Z,1.3
2017-12-14T12:44:38.399Z,1.5
2017-12-14T12:45:40.223Z,1.3
2017-12-14T12:46:42.018Z,1.6
2017-12-14T12:47:43.882Z,1.9
2017-12-14T12:48:45.670Z,2.6
2017-12-14T12:49:48.796Z,1.9
2017-12-14T12:50:50.552Z,2.4
2017-12-14T12:51:52.383Z,1.8
2017-12-14T12:52:56.049Z,2.0
2017-12-14T12:53:57.807Z,2.1
2017-12-14T12:54:59.559Z,2.9
2017-12-14T12:56:01.358Z,2.8
2017-12-14T12:57:03.138Z,2.7
2017-12-14T12:58:04.929Z,3.6
2017-12-14T12:59:06.722Z,2.0
2017-12-14T13:00:08.422Z,2.1
2017-12-14T13:01:11.572Z,2.0
2017-12-14T13:02:13.354Z,2.0
2017-12-14T13:03:15.133Z,1.8
2017-12-14T13:04:18.286Z,2.6
2017-12-14T13:05:20.093Z,4.0
2017-12-14T13:06:21.890Z,3.5
2017-12-14T13:07:23.758Z,3.7
2017-12-14T13:08:25.581Z,3.0
2017-12-14T13:09:27.407Z,2.0
2017-12-14T13:10:29.556Z,2.0
2017-12-14T13:11:33.378Z,2.9
2017-12-14T13:12:34.994Z,3.4
2017-12-14T13:13:36.848Z,2.7
2017-12-14T13:14:38.845Z,3.6
2017-12-14T13:15:40.765Z,3.7
2017-12-14T13:16:42.705Z,2.9
2017-12-14T13:17:45.048Z,2.8
2017-12-14T13:18:46.861Z,3.3
2017-12-14T13:19:48.703Z,3.3
2017-12-14T13:20:52.386Z,4.0
2017-12-14T13:21:56.124Z,2.7
2017-12-14T13:22:58.019Z,5.1
2017-12-14T13:23:59.953Z,4.3
2017-12-14T13:25:01.944Z,3.7
2017-12-14T13:26:05.231Z,4.5
2017-12-14T13:27:07.188Z,2.8
2017-12-14T13:28:09.147Z,3.2
2017-12-14T13:29:11.110Z,3.9
2017-12-14T13:30:14.205Z,5.3
2017-12-14T13:31:16.474Z,4.5
2017-12-14T13:32:19.431Z,6.6
2017-12-14T13:33:21.377Z,8.3
2017-12-14T13:34:23.336Z,9.6
2017-12-14T13:35:25.309Z,10.5
2017-12-14T13:36:29.116Z,5.0
2017-12-14T13:37:32.895Z,5.4
2017-12-14T13:38:34.828Z,7.2
2017-12-14T13:39:36.908Z,6.9
2017-12-14T13:40:40.907Z,14.0
2017-12-14T13:41:43.119Z,6.3
2017-12-14T13:42:45.145Z,8.0
2017-12-14T13:43:47.145Z,11.4
2017-12-14T13:44:49.151Z,7.2
2017-12-14T13:45:51.119Z,4.8
2017-12-14T13:46:53.093Z,4.3
2017-12-14T13:47:55.133Z,4.8
2017-12-14T13:48:57.100Z,4.4
2017-12-14T13:49:59.041Z,4.6
2017-12-14T13:51:01.022Z,8.3
2017-12-14T13:52:02.897Z,6.4
2017-12-14T13:53:04.778Z,4.9
2017-12-14T13:54:06.723Z,5.3
2017-12-14T13:55:08.573Z,6.2
2017-12-14T13:56:10.396Z,6.4
2017-12-14T13:57:12.207Z,4.6
2017-12-14T13:58:14.019Z,4.0
2017-12-14T13:59:15.848Z,3.4
2017-12-14T14:00:17.686Z,3.0
2017-12-14T14:01:19.485Z,2.4
2017-12-14T14:02:21.301Z,2.4
2017-12-14T14:03:23.120Z,3.4
2017-12-14T14:04:24.937Z,3.1
2017-12-14T14:05:26.783Z,2.9
2017-12-14T14:06:28.665Z,3.0
2017-12-14T14:07:30.450Z,4.5
2017-12-14T14:08:32.275Z,7.7
2017-12-14T14:09:34.109Z,5.4
2017-12-14T14:10:35.867Z,4.5
2017-12-14T14:11:37.627Z,3.7
2017-12-14T14:12:39.396Z,4.2
2017-12-14T14:13:41.225Z,5.1
2017-12-14T14:14:43.058Z,5.7
2017-12-14T14:15:44.851Z,4.3
2017-12-14T14:16:46.707Z,3.3
2017-12-14T14:17:48.491Z,2.8
2017-12-14T14:18:50.272Z,2.9
2017-12-14T14:19:52.037Z,2.7
2017-12-14T14:20:53.877Z,4.2
2017-12-14T14:21:55.695Z,3.0
2017-12-14T14:22:58.123Z,3.2
2017-12-14T14:23:59.877Z,2.7
2017-12-14T14:25:01.683Z,2.8
2017-12-14T14:26:03.446Z,3.6
2017-12-14T14:27:05.201Z,3.1